Time;durP1;ratioP1;P1;durP2;ratioP2;P2;SDS_P1;SDS_P2;PMS_P1;PMS_P2;Temp;Humidity;BMP_temperature;BMP_pressure;BME280_temperature;BME280_humidity;BME280_pressure;Samples;Min_cycle;Max_cycle;Signal;HPM_P1;HPM_P2
2023/06/26 00:00:59;;;;;;;7.15;5.15;;;;;;;22.23;49.66;99044.03;7249912;40;20327;31
2023/06/26 00:06:30;;;;;;;5.75;4.90;;;;;;;22.17;49.28;99038.66;7280816;40;20270;31
2023/06/26 00:12:03;;;;;;;6.10;5.00;;;;;;;22.16;50.19;99040.56;7255399;40;21228;31
2023/06/26 00:17:37;;;;;;;6.10;5.00;;;;;;;21.99;50.86;99035.03;7273397;39;21415;31
2023/06/26 00:23:08;;;;;;;5.82;5.10;;;;;;;21.91;51.26;99034.56;7276323;40;20336;31
2023/06/26 00:28:39;;;;;;;5.80;5.20;;;;;;;21.81;51.23;99028.84;7288569;40;21379;31
2023/06/26 00:34:14;;;;;;;6.10;5.50;;;;;;;21.79;51.56;99033.75;7276230;40;21166;31
2023/06/26 00:39:31;;;;;;;6.33;4.93;;;;;;;21.83;51.41;99026.72;7259483;40;21421;31
2023/06/26 00:45:03;;;;;;;6.22;4.78;;;;;;;21.76;52.01;99020.53;7230736;40;20280;31
2023/06/26 00:50:35;;;;;;;6.57;5.00;;;;;;;21.68;51.85;99026.37;7216683;40;21299;31
2023/06/26 00:56:07;;;;;;;5.80;5.22;;;;;;;21.66;51.97;99029.38;7214851;40;20277;31
2023/06/26 01:01:37;;;;;;;7.20;5.20;;;;;;;21.61;52.59;99026.53;7208572;40;21265;31
2023/06/26 01:07:09;;;;;;;5.90;5.00;;;;;;;21.54;52.86;99020.34;7210939;40;21463;31
2023/06/26 01:12:41;;;;;;;5.35;4.60;;;;;;;21.47;52.66;99009.50;7236461;40;20478;31
2023/06/26 01:18:15;;;;;;;5.97;5.07;;;;;;;21.36;53.53;99009.53;7255557;40;21215;31
2023/06/26 01:23:47;;;;;;;5.90;4.90;;;;;;;21.31;53.80;99014.91;7250500;40;21212;31
2023/06/26 01:29:19;;;;;;;5.05;4.55;;;;;;;21.24;53.76;99016.94;7231290;40;21659;31
2023/06/26 01:39:39;;;;;;;5.55;4.93;;;;;;;21.16;53.54;99001.66;7241211;40;20279;31
2023/06/26 01:50:17;;;;;;;6.55;4.80;;;;;;;21.03;55.19;98997.25;7332716;39;20247;31
2023/06/26 01:55:49;;;;;;;6.25;5.10;;;;;;;20.94;55.06;99000.56;7296953;39;20292;31
2023/06/26 02:07:25;;;;;;;8.90;4.90;;;;;;;20.85;55.56;98993.78;7277745;40;20261;31
2023/06/26 02:12:42;;;;;;;5.80;4.57;;;;;;;20.72;56.31;98996.75;7280259;39;20245;31
2023/06/26 02:18:00;;;;;;;5.87;4.87;;;;;;;20.67;55.24;98995.56;7295868;39;21259;31
2023/06/26 02:23:33;;;;;;;6.20;4.55;;;;;;;20.86;55.03;99000.94;7276692;40;20303;31
2023/06/26 02:28:51;;;;;;;4.47;4.03;;;;;;;21.17;54.63;98997.03;7283195;39;20250;31
2023/06/26 02:39:26;;;;;;;6.03;4.83;;;;;;;21.24;53.75;98992.28;7261635;40;20265;31
2023/06/26 02:44:47;;;;;;;5.80;4.50;;;;;;;21.27;54.30;98997.25;7296841;39;20495;31
2023/06/26 02:50:05;;;;;;;6.35;4.90;;;;;;;21.29;53.20;99001.41;7296124;39;21203;31
2023/06/26 02:55:39;;;;;;;6.50;5.30;;;;;;;21.20;53.96;98999.28;7276210;40;20260;31
2023/06/26 03:00:58;;;;;;;9.18;4.82;;;;;;;21.16;53.97;99006.31;7055811;40;20390;31
2023/06/26 03:06:30;;;;;;;5.60;4.90;;;;;;;20.92;55.02;99000.00;7261194;40;21438;31
2023/06/26 03:12:06;;;;;;;6.40;5.23;;;;;;;20.91;55.07;99010.13;7234581;40;21274;31
2023/06/26 03:22:31;;;;;;;6.87;5.33;;;;;;;20.71;56.28;99003.31;7248823;39;20295;31
2023/06/26 03:33:08;;;;;;;6.62;5.60;;;;;;;20.27;57.61;99008.19;7304081;39;20400;31
2023/06/26 03:38:37;;;;;;;6.25;4.97;;;;;;;20.36;57.43;99006.81;7318869;39;20294;31
2023/06/26 03:43:56;;;;;;;9.70;5.60;;;;;;;20.55;56.32;99007.56;7279959;40;21262;31
2023/06/26 03:49:28;;;;;;;6.45;4.90;;;;;;;20.58;56.28;98998.88;7256775;40;21303;31
2023/06/26 03:59:54;;;;;;;5.85;4.90;;;;;;;20.71;56.11;99003.31;7233456;40;20264;31
2023/06/26 04:10:30;;;;;;;5.55;5.00;;;;;;;20.47;57.11;98997.78;7299221;39;20279;31
2023/06/26 04:16:06;;;;;;;5.60;5.00;;;;;;;20.61;56.17;99003.91;7318316;39;20337;31
2023/06/26 04:21:36;;;;;;;7.35;5.20;;;;;;;20.76;55.56;99012.47;7255911;40;21199;31
2023/06/26 04:27:10;;;;;;;5.80;5.20;;;;;;;20.68;56.83;99019.13;7275016;40;21305;31
2023/06/26 04:37:31;;;;;;;6.95;4.70;;;;;;;20.73;56.50;99012.94;7238395;40;20277;31
2023/06/26 04:48:09;;;;;;;8.20;6.05;;;;;;;20.83;57.39;99007.72;7330896;39;20255;31
2023/06/26 04:58:46;;;;;;;6.67;5.60;;;;;;;20.95;57.38;99003.09;7320596;39;20253;31
2023/06/26 05:04:21;;;;;;;6.10;5.40;;;;;;;21.07;58.41;99000.31;7276899;40;21360;31
2023/06/26 05:09:38;;;;;;;7.90;6.35;;;;;;;21.26;57.09;99004.66;7223925;40;21184;31
2023/06/26 05:14:55;;;;;;;8.48;6.12;;;;;;;21.47;56.59;99003.19;7240509;40;20417;31
2023/06/26 05:20:29;;;;;;;7.80;6.50;;;;;;;21.64;56.84;98995.84;7236712;40;21382;31
2023/06/26 05:26:03;;;;;;;7.00;6.15;;;;;;;21.88;57.05;99002.13;7192686;40;21285;31
2023/06/26 05:31:35;;;;;;;6.90;6.05;;;;;;;22.13;56.80;98999.88;7187268;40;21208;31
2023/06/26 05:37:11;;;;;;;6.23;5.63;;;;;;;22.40;56.49;98997.34;7165771;40;21293;31
2023/06/26 05:42:43;;;;;;;7.30;5.75;;;;;;;22.66;54.63;99012.38;7196777;40;21483;31
2023/06/26 05:48:15;;;;;;;7.25;5.70;;;;;;;22.95;53.58;99019.47;7256732;40;21278;31
2023/06/26 05:53:46;;;;;;;7.80;5.30;;;;;;;23.18;53.08;99016.53;7163347;40;21360;31
2023/06/26 05:59:17;;;;;;;7.40;5.97;;;;;;;23.39;51.74;99014.09;7166812;40;20439;31
2023/06/26 06:04:34;;;;;;;6.27;5.60;;;;;;;23.64;50.99;99014.44;7219773;40;21242;31
2023/06/26 06:10:07;;;;;;;5.87;5.28;;;;;;;23.82;49.71;99021.56;7217671;40;20312;31
2023/06/26 06:15:43;;;;;;;6.20;5.60;;;;;;;24.03;48.94;99016.03;7169520;40;20257;31
2023/06/26 06:21:04;;;;;;;7.03;5.30;;;;;;;24.22;50.69;99025.63;7197225;40;21483;31
2023/06/26 06:26:37;;;;;;;7.33;5.17;;;;;;;24.38;49.92;99023.03;7221447;40;21183;31
2023/06/26 06:31:54;;;;;;;6.70;5.30;;;;;;;24.63;48.53;99024.09;7234099;40;20345;31
2023/06/26 06:37:11;;;;;;;5.70;5.10;;;;;;;24.81;47.59;99024.81;7263546;39;21261;31
2023/06/26 06:42:44;;;;;;;5.55;5.00;;;;;;;25.01;47.14;99025.03;7276435;40;21260;31
2023/06/26 06:48:05;;;;;;;5.12;4.53;;;;;;;25.25;47.14;99026.28;7205024;40;20264;31
2023/06/26 06:53:25;;;;;;;6.20;4.85;;;;;;;25.44;47.45;99018.41;7198201;40;21237;31
2023/06/26 06:58:58;;;;;;;6.12;4.90;;;;;;;25.69;46.88;99015.78;7256803;39;20272;31
2023/06/26 07:04:31;;;;;;;8.70;5.32;;;;;;;25.82;46.57;99023.59;7277304;40;20287;31
2023/06/26 07:09:49;;;;;;;5.70;5.00;;;;;;;26.00;46.32;99017.59;7272982;40;21276;31
2023/06/26 07:15:23;;;;;;;7.63;5.00;;;;;;;26.20;46.35;99018.72;7238128;40;20251;31
2023/06/26 07:20:58;;;;;;;5.60;5.00;;;;;;;26.35;45.78;99013.28;7243993;40;21340;31
2023/06/26 07:26:32;;;;;;;5.10;4.60;;;;;;;26.50;45.11;99009.72;7243573;40;21228;31
2023/06/26 07:32:06;;;;;;;5.70;5.20;;;;;;;26.65;45.69;99023.53;7214082;40;21248;31
2023/06/26 07:37:40;;;;;;;4.90;4.40;;;;;;;26.84;46.02;99028.28;7206334;40;20344;31
2023/06/26 07:42:59;;;;;;;5.10;4.55;;;;;;;27.00;46.21;99031.06;7191182;40;20278;31
2023/06/26 07:53:37;;;;;;;5.70;4.90;;;;;;;26.60;45.86;99049.25;7235456;40;20269;31
2023/06/26 08:03:59;;;;;;;5.87;4.93;;;;;;;26.69;46.39;99050.38;7235940;40;20277;31
2023/06/26 08:14:35;;;;;;;5.55;4.95;;;;;;;27.14;45.89;99048.75;7238199;40;20260;31
2023/06/26 08:25:00;;;;;;;5.40;4.90;;;;;;;27.46;46.03;99049.28;7258827;40;20265;31
2023/06/26 08:30:27;;;;;;;6.15;4.90;;;;;;;27.10;45.96;99054.03;7254973;40;20302;31
2023/06/26 08:35:43;;;;;;;6.55;4.90;;;;;;;27.05;46.33;99056.78;7257399;40;20366;31
2023/06/26 08:41:15;;;;;;;7.57;4.60;;;;;;;26.98;46.17;99058.19;7253370;40;21296;31
2023/06/26 08:46:48;;;;;;;7.10;4.80;;;;;;;26.76;47.34;99050.13;7226458;40;21207;31
2023/06/26 08:52:24;;;;;;;8.65;5.05;;;;;;;26.74;47.33;99050.38;7217744;40;20273;31
2023/06/26 08:57:56;;;;;;;6.05;4.78;;;;;;;26.97;47.30;99062.06;7227954;40;20375;31
2023/06/26 09:03:45;;;;;;;;;;;;;;;;;;;;;
2023/06/26 09:09:11;;;;;;;10.90;5.55;;;;;;;26.86;47.78;99077.81;7237441;40;20348;31
2023/06/26 09:14:47;;;;;;;5.20;4.70;;;;;;;27.13;47.14;99081.13;7234933;40;20283;31
2023/06/26 09:20:24;;;;;;;6.60;5.50;;;;;;;27.73;46.62;99085.78;7202322;40;21320;31
2023/06/26 09:25:59;;;;;;;8.30;5.30;;;;;;;27.94;45.82;99102.37;7216879;40;21461;31
2023/06/26 09:31:32;;;;;;;6.30;4.85;;;;;;;27.83;45.76;99095.19;7226521;40;21248;31
2023/06/26 09:37:11;;;;;;;7.46;5.38;;;;;;;27.75;46.19;99083.56;7224579;40;20242;31
2023/06/26 09:42:46;;;;;;;7.97;5.35;;;;;;;28.37;45.41;99090.56;7239292;40;21191;31
2023/06/26 09:48:21;;;;;;;8.65;5.05;;;;;;;28.79;44.87;99084.50;7211019;40;20272;31
2023/06/26 09:53:55;;;;;;;10.40;5.10;;;;;;;29.00;43.54;99083.28;7064042;40;20252;31
2023/06/26 09:59:28;;;;;;;5.95;5.00;;;;;;;29.29;42.76;99093.56;7235366;40;20263;31
2023/06/26 10:04:50;;;;;;;5.50;5.00;;;;;;;29.47;43.24;99107.59;7205445;40;21080;31
2023/06/26 10:15:30;;;;;;;5.80;5.20;;;;;;;29.82;41.91;99113.91;7257029;39;20377;31
2023/06/26 10:26:10;;;;;;;6.40;4.82;;;;;;;29.96;40.75;99129.63;7311895;39;20295;31
2023/06/26 10:36:52;;;;;;;8.85;4.90;;;;;;;30.11;40.95;99153.66;7326573;39;21521;31
2023/06/26 10:42:26;;;;;;;9.37;5.23;;;;;;;30.14;39.68;99155.84;7293697;39;21375;31
2023/06/26 10:48:01;;;;;;;5.20;4.70;;;;;;;30.24;39.18;99158.50;7279093;39;20270;31
2023/06/26 10:53:39;;;;;;;5.90;4.50;;;;;;;29.79;38.98;99161.75;7279382;40;20279;31
2023/06/26 10:59:12;;;;;;;5.45;4.55;;;;;;;29.80;39.09;99149.50;7179867;40;21244;31
2023/06/26 11:04:56;;;;;;;6.10;3.85;;;;;;;30.29;36.90;99154.81;7144723;40;21290;31
2023/06/26 11:10:30;;;;;;;6.65;3.87;;;;;;;30.34;36.15;99147.25;7155192;40;21308;31
2023/06/26 11:16:05;;;;;;;5.00;3.15;;;;;;;30.52;34.69;99126.19;7177818;40;21216;31
2023/06/26 11:21:40;;;;;;;5.68;3.47;;;;;;;30.80;35.99;99132.78;7197217;40;21274;31
2023/06/26 11:27:15;;;;;;;7.53;3.62;;;;;;;30.97;34.60;99144.22;7196377;40;20327;31
2023/06/26 11:32:48;;;;;;;5.57;3.33;;;;;;;30.85;35.30;99144.62;7195643;40;21276;31
2023/06/26 11:38:21;;;;;;;8.25;3.65;;;;;;;31.02;34.77;99168.41;7210325;40;21246;31
2023/06/26 11:43:56;;;;;;;5.28;3.37;;;;;;;31.09;34.96;99164.09;7199254;40;20273;31
2023/06/26 11:49:29;;;;;;;5.30;3.40;;;;;;;31.09;34.09;99169.66;7202824;40;21278;31
2023/06/26 11:55:02;;;;;;;4.87;3.50;;;;;;;31.22;34.27;99162.50;7258310;39;20268;31
2023/06/26 12:00:35;;;;;;;3.50;3.20;;;;;;;31.29;34.16;99158.19;7266923;39;21247;31
2023/06/26 12:11:13;;;;;;;4.55;3.25;;;;;;;31.62;34.29;99153.50;7322544;39;20271;31
2023/06/26 12:16:45;;;;;;;3.75;3.17;;;;;;;31.73;33.04;99162.50;7316815;39;21349;31
2023/06/26 12:22:22;;;;;;;5.10;3.13;;;;;;;31.83;33.53;99165.13;7276833;39;21275;31
2023/06/26 12:33:03;;;;;;;6.40;4.90;;;;;;;31.75;33.00;99157.47;7206299;40;21040;31
2023/06/26 12:43:40;;;;;;;8.00;6.10;;;;;;;31.72;32.73;99160.88;7254852;39;20294;31
2023/06/26 12:49:17;;;;;;;10.60;7.10;;;;;;;31.29;32.27;99169.34;7251468;40;20455;31
2023/06/26 12:54:49;;;;;;;6.95;5.95;;;;;;;31.25;32.83;99167.47;7237016;40;21217;31
2023/06/26 13:00:23;;;;;;;5.55;4.82;;;;;;;31.30;33.82;99171.00;7176349;40;20296;31
2023/06/26 13:05:54;;;;;;;7.88;5.18;;;;;;;31.46;33.47;99163.25;7203580;40;21243;31
2023/06/26 13:16:19;;;;;;;7.05;4.35;;;;;;;31.50;33.24;99171.81;7192048;40;20883;31
2023/06/26 13:21:56;;;;;;;5.00;4.10;;;;;;;31.40;32.61;99160.81;7199940;40;21113;31
2023/06/26 13:27:17;;;;;;;5.60;3.20;;;;;;;31.42;32.45;99172.50;7206351;40;21154;31
2023/06/26 13:37:55;;;;;;;3.80;2.60;;;;;;;31.40;31.78;99181.16;7275999;39;20252;31
2023/06/26 13:43:14;;;;;;;3.75;2.60;;;;;;;31.24;31.31;99188.13;7258687;40;20446;31
2023/06/26 13:48:46;;;;;;;7.58;2.66;;;;;;;31.10;31.76;99190.00;7295679;39;20368;31
2023/06/26 13:54:19;;;;;;;6.45;2.25;;;;;;;31.27;29.24;99196.69;7199386;40;20250;31
2023/06/26 13:59:51;;;;;;;4.30;2.00;;;;;;;31.14;28.58;99183.53;7240642;40;21284;31
2023/06/26 14:05:24;;;;;;;4.78;1.90;;;;;;;31.01;27.94;99184.28;7218747;40;21368;31
2023/06/26 14:10:57;;;;;;;3.80;1.98;;;;;;;31.10;27.72;99193.63;7224528;40;21227;31
2023/06/26 14:16:33;;;;;;;2.75;1.73;;;;;;;31.21;25.81;99194.28;7231582;40;21266;31
2023/06/26 14:22:05;;;;;;;3.72;1.70;;;;;;;31.07;25.06;99199.75;7199603;40;21380;31
2023/06/26 14:27:39;;;;;;;2.85;1.85;;;;;;;30.81;26.60;99206.78;7222820;40;21192;31
2023/06/26 14:32:56;;;;;;;6.35;1.95;;;;;;;30.66;26.00;99218.13;7265603;40;20671;31
2023/06/26 14:38:28;;;;;;;3.72;1.90;;;;;;;30.47;26.17;99228.38;7266041;40;21358;31
2023/06/26 14:49:06;;;;;;;3.05;1.70;;;;;;;30.11;25.92;99214.81;7267607;40;20272;31
2023/06/26 14:54:23;;;;;;;3.70;1.90;;;;;;;30.19;26.00;99211.41;7304949;39;21877;31
2023/06/26 14:59:40;;;;;;;4.07;2.05;;;;;;;30.21;25.22;99200.00;7321497;39;20300;31
2023/06/26 15:05:11;;;;;;;2.30;1.67;;;;;;;30.20;24.98;99201.94;7296370;39;20256;31
2023/06/26 15:10:31;;;;;;;7.85;2.00;;;;;;;30.45;24.48;99195.31;7248481;40;21356;31
2023/06/26 15:21:09;;;;;;;4.30;1.92;;;;;;;30.11;26.09;99219.56;7287170;39;20285;31
2023/06/26 15:31:34;;;;;;;2.40;1.70;;;;;;;29.71;27.14;99224.34;7296501;39;22025;31
2023/06/26 15:37:10;;;;;;;3.65;1.90;;;;;;;29.53;27.06;99223.09;7315424;39;20369;31
2023/06/26 15:42:42;;;;;;;2.80;1.77;;;;;;;29.49;27.85;99237.84;7276353;39;20324;31
2023/06/26 15:48:01;;;;;;;3.65;1.80;;;;;;;29.46;28.30;99233.72;7226940;40;21440;31
2023/06/26 15:53:36;;;;;;;5.18;1.90;;;;;;;29.40;27.87;99223.75;7175183;40;21255;31
2023/06/26 15:58:58;;;;;;;3.35;1.77;;;;;;;29.50;27.96;99234.81;7169822;40;21291;31
2023/06/26 16:04:13;;;;;;;4.65;1.90;;;;;;;29.50;27.76;99233.97;7202387;40;20771;31
2023/06/26 16:09:46;;;;;;;3.03;1.50;;;;;;;29.42;27.16;99227.09;7243694;40;20252;31
2023/06/26 16:15:06;;;;;;;6.78;1.80;;;;;;;29.43;28.01;99231.53;7268389;40;21413;31
2023/06/26 16:20:37;;;;;;;4.73;1.80;;;;;;;29.43;28.19;99225.97;7276078;40;21306;31
2023/06/26 16:26:10;;;;;;;3.77;1.70;;;;;;;29.55;26.92;99225.59;7215375;40;21226;31
2023/06/26 16:31:28;;;;;;;5.50;2.20;;;;;;;29.67;27.19;99226.03;7223576;40;21177;31
2023/06/26 16:36:48;;;;;;;3.65;1.70;;;;;;;29.65;28.40;99227.47;7255327;40;21284;31
2023/06/26 16:42:18;;;;;;;5.12;1.67;;;;;;;29.47;26.47;99215.09;7283610;39;20315;31
2023/06/26 16:47:38;;;;;;;4.60;1.90;;;;;;;29.33;26.87;99230.75;7255427;39;21246;31
2023/06/26 16:58:15;;;;;;;3.30;1.95;;;;;;;29.15;26.89;99234.16;7291823;39;20659;31
2023/06/26 17:03:30;;;;;;;3.42;1.80;;;;;;;28.92;27.21;99235.69;7279421;39;20502;31
2023/06/26 17:08:50;;;;;;;2.65;1.60;;;;;;;28.77;26.08;99244.94;7295796;39;21383;31
2023/06/26 17:19:27;;;;;;;3.53;1.53;;;;;;;28.60;27.70;99249.97;7232612;40;20807;31
2023/06/26 17:29:50;;;;;;;3.57;2.23;;;;;;;28.32;27.37;99256.97;7235798;40;20269;31
2023/06/26 17:35:25;;;;;;;3.97;1.73;;;;;;;28.11;27.10;99270.03;7254791;40;20372;31
2023/06/26 17:40:58;;;;;;;3.53;1.80;;;;;;;27.97;28.67;99268.06;7273800;39;21388;31
2023/06/26 17:46:34;;;;;;;4.40;1.65;;;;;;;27.75;29.73;99260.88;7274169;40;21350;31
2023/06/26 17:52:07;;;;;;;5.72;2.03;;;;;;;27.55;29.70;99260.88;7226241;40;21457;31
2023/06/26 17:57:28;;;;;;;5.78;2.00;;;;;;;27.59;28.66;99283.31;7220632;40;21219;31
2023/06/26 18:02:46;;;;;;;3.85;1.90;;;;;;;27.55;30.02;99288.59;7237467;40;21250;31
2023/06/26 18:08:18;;;;;;;3.60;2.22;;;;;;;27.43;29.22;99287.97;7203556;40;21463;31
2023/06/26 18:13:35;;;;;;;4.70;2.28;;;;;;;27.40;29.25;99295.97;7238859;40;21218;31
2023/06/26 18:24:14;;;;;;;4.37;1.73;;;;;;;27.03;30.43;99310.81;7289080;39;20311;31
2023/06/26 18:34:52;;;;;;;5.07;1.90;;;;;;;26.95;31.40;99318.81;7357093;39;20266;31
2023/06/26 18:40:29;;;;;;;2.67;1.85;;;;;;;26.88;31.66;99324.59;7333079;39;21284;31
2023/06/26 18:46:04;;;;;;;5.55;2.30;;;;;;;26.82;31.75;99329.25;7248237;40;21231;31
2023/06/26 18:51:21;;;;;;;5.87;1.90;;;;;;;26.78;32.70;99343.88;7196920;40;21280;31
2023/06/26 18:56:55;;;;;;;4.72;1.83;;;;;;;26.60;33.95;99347.09;7196179;40;21238;31
2023/06/26 19:02:12;;;;;;;3.83;2.08;;;;;;;26.54;33.55;99353.69;7184517;40;20254;31
2023/06/26 19:07:29;;;;;;;4.57;1.70;;;;;;;26.52;33.99;99345.66;7234047;40;21341;31
2023/06/26 19:13:04;;;;;;;4.45;2.10;;;;;;;26.37;34.43;99348.34;7202256;40;21284;31
2023/06/26 19:18:20;;;;;;;3.97;2.00;;;;;;;26.28;34.99;99352.69;7207347;40;21295;31
2023/06/26 19:23:38;;;;;;;5.50;2.10;;;;;;;26.21;34.78;99358.44;7247700;40;21293;31
2023/06/26 19:29:11;;;;;;;2.97;1.85;;;;;;;26.07;35.04;99371.00;7222207;40;20495;31
2023/06/26 19:34:46;;;;;;;5.05;2.00;;;;;;;25.99;35.83;99380.59;7250146;40;20285;31
2023/06/26 19:45:25;;;;;;;5.25;2.08;;;;;;;25.91;35.35;99383.84;7263580;40;20272;31
2023/06/26 19:56:00;;;;;;;4.00;2.10;;;;;;;25.65;35.84;99401.25;7267680;39;20279;31
2023/06/26 20:01:36;;;;;;;3.40;2.03;;;;;;;25.67;36.37;99401.81;7218397;40;21401;31
2023/06/26 20:07:00;;;;;;;3.43;1.80;;;;;;;25.65;36.11;99408.69;7232504;40;21289;31
2023/06/26 20:12:15;;;;;;;5.00;2.10;;;;;;;25.70;36.41;99420.63;7235569;40;21328;31
2023/06/26 20:17:46;;;;;;;3.58;1.90;;;;;;;25.59;37.16;99418.84;7220347;40;20239;31
2023/06/26 20:23:21;;;;;;;5.65;2.30;;;;;;;25.48;37.32;99419.78;7208246;40;21276;31
2023/06/26 20:28:38;;;;;;;2.95;1.98;;;;;;;25.43;36.77;99431.59;7278077;40;21671;31
2023/06/26 20:34:14;;;;;;;4.90;1.90;;;;;;;25.33;37.39;99427.88;7292842;40;21256;31
2023/06/26 20:44:55;;;;;;;3.83;1.92;;;;;;;25.19;37.17;99434.88;7226042;40;20383;31
2023/06/26 20:50:30;;;;;;;8.42;2.14;;;;;;;25.03;37.41;99440.19;7226170;40;20265;31
2023/06/26 20:55:48;;;;;;;3.40;1.80;;;;;;;25.05;37.17;99443.53;7240573;40;21289;31
2023/06/26 21:01:20;;;;;;;4.30;2.00;;;;;;;24.98;37.87;99442.03;7261098;40;21508;31
2023/06/26 21:06:56;;;;;;;7.35;2.40;;;;;;;24.92;38.21;99446.66;7238012;40;20270;31
2023/06/26 21:17:32;;;;;;;5.67;2.20;;;;;;;24.95;37.94;99454.41;7264714;39;20271;31
2023/06/26 21:28:09;;;;;;;4.35;1.90;;;;;;;24.78;37.54;99461.84;7297494;39;20243;31
2023/06/26 21:33:27;;;;;;;4.70;2.20;;;;;;;24.75;38.42;99462.34;7299487;40;21299;31
2023/06/26 21:38:45;;;;;;;3.35;1.95;;;;;;;24.61;37.93;99464.62;7281824;40;21169;31
2023/06/26 21:44:16;;;;;;;3.50;1.95;;;;;;;24.44;37.92;99468.47;7278066;40;21063;31
2023/06/26 21:49:50;;;;;;;4.05;2.00;;;;;;;24.44;38.00;99476.72;7282304;39;21195;31
2023/06/26 21:55:22;;;;;;;3.55;1.80;;;;;;;24.31;37.86;99479.81;7276789;40;21276;31
2023/06/26 22:00:55;;;;;;;6.40;2.10;;;;;;;24.12;38.83;99485.50;7270954;39;21475;31
2023/06/26 22:06:13;;;;;;;5.15;2.30;;;;;;;24.20;38.79;99493.41;7270320;40;21584;31
2023/06/26 22:11:29;;;;;;;4.15;2.10;;;;;;;24.09;38.66;99494.25;7266657;40;21254;31
2023/06/26 22:17:03;;;;;;;3.20;2.00;;;;;;;23.87;38.79;99486.94;7259310;40;21333;31
2023/06/26 22:22:35;;;;;;;4.80;2.10;;;;;;;23.78;38.98;99489.25;7254313;40;21267;31
2023/06/26 22:28:07;;;;;;;4.62;2.03;;;;;;;23.70;38.95;99493.22;7207932;40;21256;31
2023/06/26 22:33:40;;;;;;;4.90;1.90;;;;;;;23.82;39.61;99484.94;7195560;40;21359;31
2023/06/26 22:38:57;;;;;;;4.40;2.30;;;;;;;23.71;39.66;99483.88;7146636;40;21214;31
2023/06/26 22:44:30;;;;;;;8.30;2.30;;;;;;;23.82;38.75;99495.94;7170024;40;21318;31
2023/06/26 22:50:03;;;;;;;3.55;1.90;;;;;;;23.73;39.22;99505.66;7229652;40;21179;31
2023/06/26 22:55:35;;;;;;;8.50;2.20;;;;;;;23.85;39.55;99503.72;7224655;40;21377;31
2023/06/26 23:01:13;;;;;;;2.75;1.98;;;;;;;23.88;39.69;99503.22;7240556;40;21275;31
2023/06/26 23:06:44;;;;;;;4.50;2.08;;;;;;;23.86;38.65;99504.53;7208350;40;21215;31
2023/06/26 23:12:14;;;;;;;4.50;2.10;;;;;;;23.94;39.02;99513.25;7187097;40;20270;31
2023/06/26 23:17:49;;;;;;;4.75;2.10;;;;;;;23.84;40.32;99510.28;7194940;40;20321;31
2023/06/26 23:23:24;;;;;;;4.10;1.80;;;;;;;23.71;40.49;99510.56;7259745;40;21265;31
2023/06/26 23:33:56;;;;;;;4.85;2.37;;;;;;;23.72;40.23;99515.00;7253795;40;20257;31
2023/06/26 23:44:49;;;;;;;3.75;2.10;;;;;;;23.54;39.91;99516.00;7224681;40;20282;31
2023/06/26 23:50:24;;;;;;;4.97;1.83;;;;;;;23.39;41.30;99512.06;7255147;40;20307;31
2023/06/26 23:55:42;;;;;;;3.25;2.12;;;;;;;23.24;41.36;99518.91;7278304;40;21344;31
